sensor_id;sensor_type;location;lat;lon;timestamp;P1;durP1;ratioP1;P2;durP2;ratioP2
5125;SDS011;63008;53.112;8.896;2023-08-01T00:01:46;13.53;;;10.73;;
5125;SDS011;63008;53.112;8.896;2023-08-01T00:03:47;16.07;;;10.93;;
5125;SDS011;63008;53.112;8.896;2023-08-01T00:05:48;11.20;;;9.87;;
5125;SDS011;63008;53.112;8.896;2023-08-01T00:07:49;11.17;;;10.07;;
5125;SDS011;63008;53.112;8.896;2023-08-01T00:09:50;20.50;;;12.37;;
5125;SDS011;63008;53.112;8.896;2023-08-01T00:11:51;12.73;;;11.30;;
5125;SDS011;63008;53.112;8.896;2023-08-01T00:13:52;14.83;;;12.33;;
5125;SDS011;63008;53.112;8.896;2023-08-01T00:15:53;16.83;;;11.90;;
5125;SDS011;63008;53.112;8.896;2023-08-01T00:17:54;15.90;;;11.60;;
5125;SDS011;63008;53.112;8.896;2023-08-01T00:19:55;14.00;;;12.20;;
5125;SDS011;63008;53.112;8.896;2023-08-01T00:21:55;14.70;;;12.63;;
5125;SDS011;63008;53.112;8.896;2023-08-01T00:23:56;19.33;;;12.50;;
5125;SDS011;63008;53.112;8.896;2023-08-01T00:25:58;21.03;;;13.53;;
5125;SDS011;63008;53.112;8.896;2023-08-01T00:27:59;20.43;;;13.13;;
5125;SDS011;63008;53.112;8.896;2023-08-01T00:30:00;16.03;;;13.53;;
5125;SDS011;63008;53.112;8.896;2023-08-01T00:32:00;15.20;;;11.03;;
5125;SDS011;63008;53.112;8.896;2023-08-01T00:34:01;16.43;;;13.20;;
5125;SDS011;63008;53.112;8.896;2023-08-01T00:36:03;15.60;;;12.97;;
5125;SDS011;63008;53.112;8.896;2023-08-01T00:38:04;18.13;;;12.17;;
5125;SDS011;63008;53.112;8.896;2023-08-01T00:40:05;16.57;;;12.77;;
5125;SDS011;63008;53.112;8.896;2023-08-01T00:42:06;19.83;;;12.70;;
5125;SDS011;63008;53.112;8.896;2023-08-01T00:44:07;15.10;;;13.30;;
5125;SDS011;63008;53.112;8.896;2023-08-01T00:46:08;15.80;;;13.10;;
5125;SDS011;63008;53.112;8.896;2023-08-01T00:48:10;20.00;;;12.27;;
5125;SDS011;63008;53.112;8.896;2023-08-01T00:50:11;15.63;;;12.90;;
5125;SDS011;63008;53.112;8.896;2023-08-01T00:52:12;16.40;;;14.30;;
5125;SDS011;63008;53.112;8.896;2023-08-01T00:54:14;17.60;;;13.47;;
5125;SDS011;63008;53.112;8.896;2023-08-01T00:56:15;16.90;;;13.27;;
5125;SDS011;63008;53.112;8.896;2023-08-01T00:58:16;19.40;;;14.77;;
5125;SDS011;63008;53.112;8.896;2023-08-01T01:00:17;17.10;;;13.43;;
5125;SDS011;63008;53.112;8.896;2023-08-01T01:02:18;20.20;;;13.70;;
5125;SDS011;63008;53.112;8.896;2023-08-01T01:04:19;18.60;;;13.83;;
5125;SDS011;63008;53.112;8.896;2023-08-01T01:06:20;16.40;;;12.10;;
5125;SDS011;63008;53.112;8.896;2023-08-01T01:08:26;14.17;;;12.67;;
5125;SDS011;63008;53.112;8.896;2023-08-01T01:10:27;15.60;;;12.80;;
5125;SDS011;63008;53.112;8.896;2023-08-01T01:12:28;17.70;;;13.37;;
5125;SDS011;63008;53.112;8.896;2023-08-01T01:14:29;18.67;;;12.80;;
5125;SDS011;63008;53.112;8.896;2023-08-01T01:16:30;13.23;;;11.60;;
5125;SDS011;63008;53.112;8.896;2023-08-01T01:18:31;18.80;;;12.53;;
5125;SDS011;63008;53.112;8.896;2023-08-01T01:20:35;15.97;;;12.63;;
5125;SDS011;63008;53.112;8.896;2023-08-01T01:22:37;17.40;;;13.00;;
5125;SDS011;63008;53.112;8.896;2023-08-01T01:24:39;18.60;;;12.73;;
5125;SDS011;63008;53.112;8.896;2023-08-01T01:26:42;19.27;;;12.83;;
5125;SDS011;63008;53.112;8.896;2023-08-01T01:28:44;18.50;;;13.67;;
5125;SDS011;63008;53.112;8.896;2023-08-01T01:30:45;16.70;;;12.13;;
5125;SDS011;63008;53.112;8.896;2023-08-01T01:32:46;18.80;;;12.33;;
5125;SDS011;63008;53.112;8.896;2023-08-01T01:34:48;16.87;;;12.70;;
5125;SDS011;63008;53.112;8.896;2023-08-01T01:36:49;16.47;;;11.53;;
5125;SDS011;63008;53.112;8.896;2023-08-01T01:38:49;20.97;;;12.40;;
5125;SDS011;63008;53.112;8.896;2023-08-01T01:40:50;16.20;;;13.13;;
5125;SDS011;63008;53.112;8.896;2023-08-01T01:42:51;16.13;;;11.87;;
5125;SDS011;63008;53.112;8.896;2023-08-01T01:44:52;18.03;;;12.40;;
5125;SDS011;63008;53.112;8.896;2023-08-01T01:46:53;18.77;;;12.17;;
5125;SDS011;63008;53.112;8.896;2023-08-01T01:48:56;20.63;;;15.00;;
5125;SDS011;63008;53.112;8.896;2023-08-01T01:50:58;22.63;;;13.47;;
5125;SDS011;63008;53.112;8.896;2023-08-01T01:52:59;16.90;;;13.43;;
5125;SDS011;63008;53.112;8.896;2023-08-01T01:55:00;17.37;;;13.57;;
5125;SDS011;63008;53.112;8.896;2023-08-01T01:57:01;14.67;;;12.30;;
5125;SDS011;63008;53.112;8.896;2023-08-01T01:59:02;21.80;;;13.10;;
5125;SDS011;63008;53.112;8.896;2023-08-01T02:01:03;25.97;;;13.70;;
5125;SDS011;63008;53.112;8.896;2023-08-01T02:03:04;25.17;;;13.30;;
5125;SDS011;63008;53.112;8.896;2023-08-01T02:05:08;14.47;;;12.07;;
5125;SDS011;63008;53.112;8.896;2023-08-01T02:07:08;15.43;;;12.37;;
5125;SDS011;63008;53.112;8.896;2023-08-01T02:09:09;14.10;;;11.80;;
5125;SDS011;63008;53.112;8.896;2023-08-01T02:11:10;16.43;;;11.63;;
5125;SDS011;63008;53.112;8.896;2023-08-01T02:13:11;17.37;;;13.10;;
5125;SDS011;63008;53.112;8.896;2023-08-01T02:15:12;17.63;;;11.57;;
5125;SDS011;63008;53.112;8.896;2023-08-01T02:17:13;16.03;;;11.60;;
5125;SDS011;63008;53.112;8.896;2023-08-01T02:19:14;12.63;;;11.30;;
5125;SDS011;63008;53.112;8.896;2023-08-01T02:21:15;15.73;;;11.20;;
5125;SDS011;63008;53.112;8.896;2023-08-01T02:23:16;17.93;;;13.27;;
5125;SDS011;63008;53.112;8.896;2023-08-01T02:25:17;17.40;;;11.73;;
5125;SDS011;63008;53.112;8.896;2023-08-01T02:27:18;14.90;;;11.80;;
5125;SDS011;63008;53.112;8.896;2023-08-01T02:29:19;17.60;;;11.73;;
5125;SDS011;63008;53.112;8.896;2023-08-01T02:31:20;13.93;;;11.90;;
5125;SDS011;63008;53.112;8.896;2023-08-01T02:33:21;25.13;;;11.40;;
5125;SDS011;63008;53.112;8.896;2023-08-01T02:35:22;16.63;;;12.37;;
5125;SDS011;63008;53.112;8.896;2023-08-01T02:37:23;17.33;;;11.37;;
5125;SDS011;63008;53.112;8.896;2023-08-01T02:39:25;16.67;;;11.60;;
5125;SDS011;63008;53.112;8.896;2023-08-01T02:41:26;18.60;;;11.17;;
5125;SDS011;63008;53.112;8.896;2023-08-01T02:43:27;14.20;;;12.53;;
5125;SDS011;63008;53.112;8.896;2023-08-01T02:45:28;20.60;;;12.70;;
5125;SDS011;63008;53.112;8.896;2023-08-01T02:47:29;21.70;;;12.67;;
5125;SDS011;63008;53.112;8.896;2023-08-01T02:49:30;16.60;;;13.30;;
5125;SDS011;63008;53.112;8.896;2023-08-01T02:51:31;14.60;;;12.70;;
5125;SDS011;63008;53.112;8.896;2023-08-01T02:53:32;16.20;;;13.20;;
5125;SDS011;63008;53.112;8.896;2023-08-01T02:55:33;20.13;;;13.87;;
5125;SDS011;63008;53.112;8.896;2023-08-01T02:57:34;17.43;;;12.80;;
5125;SDS011;63008;53.112;8.896;2023-08-01T02:59:35;19.93;;;12.87;;
5125;SDS011;63008;53.112;8.896;2023-08-01T03:01:37;20.00;;;12.80;;
5125;SDS011;63008;53.112;8.896;2023-08-01T03:03:38;18.50;;;14.00;;
5125;SDS011;63008;53.112;8.896;2023-08-01T03:05:40;19.60;;;13.97;;
5125;SDS011;63008;53.112;8.896;2023-08-01T03:07:41;17.97;;;12.90;;
5125;SDS011;63008;53.112;8.896;2023-08-01T03:09:42;19.37;;;12.53;;
5125;SDS011;63008;53.112;8.896;2023-08-01T03:11:43;18.93;;;14.20;;
5125;SDS011;63008;53.112;8.896;2023-08-01T03:13:44;17.93;;;13.67;;
5125;SDS011;63008;53.112;8.896;2023-08-01T03:15:45;17.90;;;13.83;;
5125;SDS011;63008;53.112;8.896;2023-08-01T03:17:46;23.70;;;13.97;;
5125;SDS011;63008;53.112;8.896;2023-08-01T03:19:47;18.40;;;13.80;;
5125;SDS011;63008;53.112;8.896;2023-08-01T03:21:49;20.07;;;14.17;;
5125;SDS011;63008;53.112;8.896;2023-08-01T03:23:50;20.20;;;13.00;;
5125;SDS011;63008;53.112;8.896;2023-08-01T03:25:51;18.80;;;13.87;;
5125;SDS011;63008;53.112;8.896;2023-08-01T03:27:52;20.90;;;14.00;;
5125;SDS011;63008;53.112;8.896;2023-08-01T03:29:55;25.50;;;14.87;;
5125;SDS011;63008;53.112;8.896;2023-08-01T03:31:55;18.23;;;13.87;;
5125;SDS011;63008;53.112;8.896;2023-08-01T03:33:56;19.13;;;15.20;;
5125;SDS011;63008;53.112;8.896;2023-08-01T03:36:00;21.70;;;15.13;;
5125;SDS011;63008;53.112;8.896;2023-08-01T03:38:01;25.67;;;14.60;;
5125;SDS011;63008;53.112;8.896;2023-08-01T03:40:02;22.73;;;16.30;;
5125;SDS011;63008;53.112;8.896;2023-08-01T03:42:03;17.47;;;14.87;;
5125;SDS011;63008;53.112;8.896;2023-08-01T03:44:04;23.17;;;15.90;;
5125;SDS011;63008;53.112;8.896;2023-08-01T03:46:06;20.50;;;15.40;;
5125;SDS011;63008;53.112;8.896;2023-08-01T03:48:07;25.33;;;16.53;;
5125;SDS011;63008;53.112;8.896;2023-08-01T03:50:09;22.33;;;14.93;;
5125;SDS011;63008;53.112;8.896;2023-08-01T03:52:10;20.60;;;15.00;;
5125;SDS011;63008;53.112;8.896;2023-08-01T03:54:11;25.37;;;16.60;;
5125;SDS011;63008;53.112;8.896;2023-08-01T03:56:12;23.50;;;16.30;;
5125;SDS011;63008;53.112;8.896;2023-08-01T03:58:13;24.30;;;16.87;;
5125;SDS011;63008;53.112;8.896;2023-08-01T04:00:14;29.23;;;16.77;;
5125;SDS011;63008;53.112;8.896;2023-08-01T04:02:15;23.47;;;17.23;;
5125;SDS011;63008;53.112;8.896;2023-08-01T04:04:16;32.13;;;17.23;;
5125;SDS011;63008;53.112;8.896;2023-08-01T04:06:17;24.43;;;16.83;;
5125;SDS011;63008;53.112;8.896;2023-08-01T04:08:18;22.93;;;15.77;;
5125;SDS011;63008;53.112;8.896;2023-08-01T04:10:19;24.20;;;16.23;;
5125;SDS011;63008;53.112;8.896;2023-08-01T04:12:23;30.93;;;16.77;;
5125;SDS011;63008;53.112;8.896;2023-08-01T04:14:24;23.00;;;16.40;;
5125;SDS011;63008;53.112;8.896;2023-08-01T04:16:25;26.47;;;16.47;;
5125;SDS011;63008;53.112;8.896;2023-08-01T04:18:26;27.57;;;17.60;;
5125;SDS011;63008;53.112;8.896;2023-08-01T04:20:27;29.67;;;15.80;;
5125;SDS011;63008;53.112;8.896;2023-08-01T04:22:28;29.60;;;17.50;;
5125;SDS011;63008;53.112;8.896;2023-08-01T04:24:29;25.13;;;17.00;;
5125;SDS011;63008;53.112;8.896;2023-08-01T04:26:31;28.20;;;17.87;;
5125;SDS011;63008;53.112;8.896;2023-08-01T04:28:32;23.03;;;15.73;;
5125;SDS011;63008;53.112;8.896;2023-08-01T04:30:34;26.03;;;17.27;;
5125;SDS011;63008;53.112;8.896;2023-08-01T04:32:35;27.97;;;16.60;;
5125;SDS011;63008;53.112;8.896;2023-08-01T04:34:36;28.83;;;17.00;;
5125;SDS011;63008;53.112;8.896;2023-08-01T04:36:36;26.63;;;17.80;;
5125;SDS011;63008;53.112;8.896;2023-08-01T04:38:37;27.83;;;17.27;;
5125;SDS011;63008;53.112;8.896;2023-08-01T04:40:38;30.53;;;18.50;;
5125;SDS011;63008;53.112;8.896;2023-08-01T04:42:39;31.77;;;18.90;;
5125;SDS011;63008;53.112;8.896;2023-08-01T04:44:40;27.43;;;18.07;;
5125;SDS011;63008;53.112;8.896;2023-08-01T04:46:41;28.20;;;18.73;;
5125;SDS011;63008;53.112;8.896;2023-08-01T04:48:42;25.73;;;17.57;;
5125;SDS011;63008;53.112;8.896;2023-08-01T04:50:44;35.70;;;19.33;;
5125;SDS011;63008;53.112;8.896;2023-08-01T04:52:45;36.20;;;18.40;;
5125;SDS011;63008;53.112;8.896;2023-08-01T04:54:46;23.10;;;13.30;;
5125;SDS011;63008;53.112;8.896;2023-08-01T04:56:47;25.93;;;8.40;;
5125;SDS011;63008;53.112;8.896;2023-08-01T04:58:48;9.70;;;6.97;;
5125;SDS011;63008;53.112;8.896;2023-08-01T05:00:49;12.00;;;4.77;;
5125;SDS011;63008;53.112;8.896;2023-08-01T05:02:50;10.17;;;4.70;;
5125;SDS011;63008;53.112;8.896;2023-08-01T05:04:51;7.80;;;3.30;;
5125;SDS011;63008;53.112;8.896;2023-08-01T05:06:52;5.63;;;3.93;;
5125;SDS011;63008;53.112;8.896;2023-08-01T05:08:53;5.13;;;4.23;;
5125;SDS011;63008;53.112;8.896;2023-08-01T05:10:54;7.53;;;4.47;;
5125;SDS011;63008;53.112;8.896;2023-08-01T05:12:55;6.53;;;4.13;;
5125;SDS011;63008;53.112;8.896;2023-08-01T05:14:56;9.60;;;5.53;;
5125;SDS011;63008;53.112;8.896;2023-08-01T05:16:57;8.50;;;5.13;;
5125;SDS011;63008;53.112;8.896;2023-08-01T05:18:58;5.93;;;5.10;;
5125;SDS011;63008;53.112;8.896;2023-08-01T05:20:59;16.83;;;5.73;;
5125;SDS011;63008;53.112;8.896;2023-08-01T05:23:00;10.13;;;6.07;;
5125;SDS011;63008;53.112;8.896;2023-08-01T05:25:01;10.27;;;6.53;;
5125;SDS011;63008;53.112;8.896;2023-08-01T05:27:02;15.60;;;7.43;;
5125;SDS011;63008;53.112;8.896;2023-08-01T05:29:03;16.13;;;8.23;;
5125;SDS011;63008;53.112;8.896;2023-08-01T05:31:04;13.73;;;8.73;;
5125;SDS011;63008;53.112;8.896;2023-08-01T05:33:05;12.87;;;9.50;;
5125;SDS011;63008;53.112;8.896;2023-08-01T05:35:06;13.47;;;8.67;;
5125;SDS011;63008;53.112;8.896;2023-08-01T05:37:08;12.63;;;8.40;;
5125;SDS011;63008;53.112;8.896;2023-08-01T05:39:09;15.73;;;8.17;;
5125;SDS011;63008;53.112;8.896;2023-08-01T05:41:10;8.50;;;7.63;;
5125;SDS011;63008;53.112;8.896;2023-08-01T05:43:11;35.13;;;8.87;;
5125;SDS011;63008;53.112;8.896;2023-08-01T05:45:12;10.80;;;7.90;;
5125;SDS011;63008;53.112;8.896;2023-08-01T05:47:13;19.17;;;8.03;;
5125;SDS011;63008;53.112;8.896;2023-08-01T05:49:14;11.10;;;7.20;;
5125;SDS011;63008;53.112;8.896;2023-08-01T05:51:14;17.20;;;7.77;;
5125;SDS011;63008;53.112;8.896;2023-08-01T05:53:15;10.90;;;6.63;;
5125;SDS011;63008;53.112;8.896;2023-08-01T05:55:16;17.80;;;7.50;;
5125;SDS011;63008;53.112;8.896;2023-08-01T05:57:17;11.13;;;7.77;;
5125;SDS011;63008;53.112;8.896;2023-08-01T05:59:18;13.90;;;7.90;;
5125;SDS011;63008;53.112;8.896;2023-08-01T06:01:20;14.03;;;7.40;;
5125;SDS011;63008;53.112;8.896;2023-08-01T06:03:22;14.10;;;8.00;;
5125;SDS011;63008;53.112;8.896;2023-08-01T06:05:23;10.27;;;6.97;;
5125;SDS011;63008;53.112;8.896;2023-08-01T06:07:24;13.60;;;8.50;;
5125;SDS011;63008;53.112;8.896;2023-08-01T06:09:25;14.07;;;8.53;;
5125;SDS011;63008;53.112;8.896;2023-08-01T06:11:26;9.80;;;7.40;;
5125;SDS011;63008;53.112;8.896;2023-08-01T06:13:27;14.80;;;9.50;;
5125;SDS011;63008;53.112;8.896;2023-08-01T06:15:28;18.60;;;8.90;;
5125;SDS011;63008;53.112;8.896;2023-08-01T06:17:29;10.80;;;8.30;;
5125;SDS011;63008;53.112;8.896;2023-08-01T06:19:30;14.60;;;9.70;;
5125;SDS011;63008;53.112;8.896;2023-08-01T06:21:31;23.17;;;10.07;;
5125;SDS011;63008;53.112;8.896;2023-08-01T06:23:32;17.50;;;10.30;;
5125;SDS011;63008;53.112;8.896;2023-08-01T06:25:33;14.93;;;11.23;;
5125;SDS011;63008;53.112;8.896;2023-08-01T06:27:34;14.60;;;11.10;;
5125;SDS011;63008;53.112;8.896;2023-08-01T06:29:35;12.73;;;10.60;;
5125;SDS011;63008;53.112;8.896;2023-08-01T06:31:37;18.77;;;10.27;;
5125;SDS011;63008;53.112;8.896;2023-08-01T06:33:38;15.50;;;10.60;;
5125;SDS011;63008;53.112;8.896;2023-08-01T06:35:39;16.43;;;10.80;;
5125;SDS011;63008;53.112;8.896;2023-08-01T06:37:40;19.13;;;12.60;;
5125;SDS011;63008;53.112;8.896;2023-08-01T06:39:41;25.13;;;12.63;;
5125;SDS011;63008;53.112;8.896;2023-08-01T06:41:42;19.00;;;13.43;;
5125;SDS011;63008;53.112;8.896;2023-08-01T06:43:43;20.50;;;12.70;;
5125;SDS011;63008;53.112;8.896;2023-08-01T06:45:44;23.47;;;13.07;;
5125;SDS011;63008;53.112;8.896;2023-08-01T06:47:45;18.70;;;14.00;;
5125;SDS011;63008;53.112;8.896;2023-08-01T06:49:46;20.70;;;14.07;;
5125;SDS011;63008;53.112;8.896;2023-08-01T06:51:47;20.00;;;13.87;;
5125;SDS011;63008;53.112;8.896;2023-08-01T06:53:48;21.80;;;13.40;;
5125;SDS011;63008;53.112;8.896;2023-08-01T06:55:49;18.43;;;11.37;;
5125;SDS011;63008;53.112;8.896;2023-08-01T06:57:50;21.67;;;12.20;;
5125;SDS011;63008;53.112;8.896;2023-08-01T06:59:51;16.87;;;12.47;;
5125;SDS011;63008;53.112;8.896;2023-08-01T07:01:52;27.00;;;13.60;;
5125;SDS011;63008;53.112;8.896;2023-08-01T07:03:53;19.07;;;13.20;;
5125;SDS011;63008;53.112;8.896;2023-08-01T07:05:53;20.87;;;11.40;;
5125;SDS011;63008;53.112;8.896;2023-08-01T07:07:54;20.33;;;13.13;;
5125;SDS011;63008;53.112;8.896;2023-08-01T07:09:56;19.77;;;12.87;;
5125;SDS011;63008;53.112;8.896;2023-08-01T07:11:57;13.27;;;11.33;;
5125;SDS011;63008;53.112;8.896;2023-08-01T07:13:58;20.87;;;11.53;;
5125;SDS011;63008;53.112;8.896;2023-08-01T07:15:59;16.30;;;12.23;;
5125;SDS011;63008;53.112;8.896;2023-08-01T07:18:00;17.60;;;11.30;;
5125;SDS011;63008;53.112;8.896;2023-08-01T07:20:01;17.70;;;11.00;;
5125;SDS011;63008;53.112;8.896;2023-08-01T07:22:03;17.33;;;11.60;;
5125;SDS011;63008;53.112;8.896;2023-08-01T07:24:04;17.60;;;11.20;;
5125;SDS011;63008;53.112;8.896;2023-08-01T07:26:05;16.80;;;11.27;;
5125;SDS011;63008;53.112;8.896;2023-08-01T07:28:06;15.57;;;10.70;;
5125;SDS011;63008;53.112;8.896;2023-08-01T07:30:07;14.07;;;9.97;;
5125;SDS011;63008;53.112;8.896;2023-08-01T07:32:09;11.80;;;7.90;;
5125;SDS011;63008;53.112;8.896;2023-08-01T07:34:10;11.00;;;7.63;;
5125;SDS011;63008;53.112;8.896;2023-08-01T07:36:11;9.60;;;5.77;;
5125;SDS011;63008;53.112;8.896;2023-08-01T07:38:12;11.87;;;5.67;;
5125;SDS011;63008;53.112;8.896;2023-08-01T07:40:13;7.13;;;4.17;;
5125;SDS011;63008;53.112;8.896;2023-08-01T07:42:14;5.00;;;4.00;;
5125;SDS011;63008;53.112;8.896;2023-08-01T07:44:15;6.63;;;2.97;;
5125;SDS011;63008;53.112;8.896;2023-08-01T07:46:16;5.07;;;3.10;;
5125;SDS011;63008;53.112;8.896;2023-08-01T07:48:17;2.83;;;2.63;;
5125;SDS011;63008;53.112;8.896;2023-08-01T07:50:18;7.07;;;4.43;;
5125;SDS011;63008;53.112;8.896;2023-08-01T07:52:19;6.93;;;3.13;;
5125;SDS011;63008;53.112;8.896;2023-08-01T07:54:20;5.13;;;4.10;;
5125;SDS011;63008;53.112;8.896;2023-08-01T07:56:21;3.03;;;2.70;;
5125;SDS011;63008;53.112;8.896;2023-08-01T07:58:22;3.23;;;2.90;;
5125;SDS011;63008;53.112;8.896;2023-08-01T08:00:23;8.13;;;3.50;;
5125;SDS011;63008;53.112;8.896;2023-08-01T08:02:24;4.67;;;2.20;;
5125;SDS011;63008;53.112;8.896;2023-08-01T08:04:25;5.57;;;2.27;;
5125;SDS011;63008;53.112;8.896;2023-08-01T08:06:37;3.60;;;2.33;;
5125;SDS011;63008;53.112;8.896;2023-08-01T08:08:38;3.47;;;2.10;;
5125;SDS011;63008;53.112;8.896;2023-08-01T08:10:40;5.07;;;2.40;;
5125;SDS011;63008;53.112;8.896;2023-08-01T08:12:41;2.80;;;1.70;;
5125;SDS011;63008;53.112;8.896;2023-08-01T08:14:42;3.23;;;2.00;;
5125;SDS011;63008;53.112;8.896;2023-08-01T08:16:43;4.03;;;1.70;;
5125;SDS011;63008;53.112;8.896;2023-08-01T08:18:43;2.13;;;1.90;;
5125;SDS011;63008;53.112;8.896;2023-08-01T08:20:44;5.13;;;2.10;;
5125;SDS011;63008;53.112;8.896;2023-08-01T08:22:46;6.80;;;2.00;;
5125;SDS011;63008;53.112;8.896;2023-08-01T08:24:47;4.70;;;2.37;;
5125;SDS011;63008;53.112;8.896;2023-08-01T08:26:48;3.67;;;2.50;;
5125;SDS011;63008;53.112;8.896;2023-08-01T08:28:49;2.10;;;1.87;;
5125;SDS011;63008;53.112;8.896;2023-08-01T08:30:50;3.83;;;2.70;;
5125;SDS011;63008;53.112;8.896;2023-08-01T08:32:51;3.57;;;2.20;;
5125;SDS011;63008;53.112;8.896;2023-08-01T08:34:52;5.60;;;2.30;;
5125;SDS011;63008;53.112;8.896;2023-08-01T08:36:53;8.33;;;2.57;;
5125;SDS011;63008;53.112;8.896;2023-08-01T08:38:54;5.40;;;2.27;;
5125;SDS011;63008;53.112;8.896;2023-08-01T08:40:59;4.50;;;2.27;;
5125;SDS011;63008;53.112;8.896;2023-08-01T08:43:08;5.43;;;2.90;;
5125;SDS011;63008;53.112;8.896;2023-08-01T08:45:10;5.60;;;2.53;;
5125;SDS011;63008;53.112;8.896;2023-08-01T08:47:12;3.23;;;2.27;;
5125;SDS011;63008;53.112;8.896;2023-08-01T08:49:17;6.20;;;2.20;;
5125;SDS011;63008;53.112;8.896;2023-08-01T08:51:20;5.50;;;2.40;;
5125;SDS011;63008;53.112;8.896;2023-08-01T08:53:22;5.00;;;2.43;;
5125;SDS011;63008;53.112;8.896;2023-08-01T08:55:23;4.63;;;2.80;;
5125;SDS011;63008;53.112;8.896;2023-08-01T08:57:27;3.37;;;2.37;;
5125;SDS011;63008;53.112;8.896;2023-08-01T08:59:28;4.90;;;2.13;;
5125;SDS011;63008;53.112;8.896;2023-08-01T09:01:31;2.60;;;2.00;;
5125;SDS011;63008;53.112;8.896;2023-08-01T09:03:33;2.63;;;1.90;;
5125;SDS011;63008;53.112;8.896;2023-08-01T09:05:42;3.10;;;2.43;;
5125;SDS011;63008;53.112;8.896;2023-08-01T09:07:48;4.53;;;2.30;;
5125;SDS011;63008;53.112;8.896;2023-08-01T09:09:51;2.00;;;1.53;;
5125;SDS011;63008;53.112;8.896;2023-08-01T09:11:52;3.23;;;1.30;;
5125;SDS011;63008;53.112;8.896;2023-08-01T09:13:54;3.67;;;1.50;;
5125;SDS011;63008;53.112;8.896;2023-08-01T09:15:56;5.70;;;1.77;;
5125;SDS011;63008;53.112;8.896;2023-08-01T09:17:57;3.87;;;1.23;;
5125;SDS011;63008;53.112;8.896;2023-08-01T09:20:07;2.70;;;1.80;;
5125;SDS011;63008;53.112;8.896;2023-08-01T09:22:11;2.90;;;1.77;;
5125;SDS011;63008;53.112;8.896;2023-08-01T09:24:18;2.13;;;1.17;;
5125;SDS011;63008;53.112;8.896;2023-08-01T09:26:20;6.90;;;1.40;;
5125;SDS011;63008;53.112;8.896;2023-08-01T09:28:21;3.13;;;1.57;;
5125;SDS011;63008;53.112;8.896;2023-08-01T09:30:23;3.17;;;1.47;;
5125;SDS011;63008;53.112;8.896;2023-08-01T09:32:24;1.30;;;1.10;;
5125;SDS011;63008;53.112;8.896;2023-08-01T09:34:26;3.00;;;1.20;;
5125;SDS011;63008;53.112;8.896;2023-08-01T09:36:27;2.83;;;1.30;;
5125;SDS011;63008;53.112;8.896;2023-08-01T09:38:28;1.37;;;1.30;;
5125;SDS011;63008;53.112;8.896;2023-08-01T09:40:38;2.30;;;1.30;;
5125;SDS011;63008;53.112;8.896;2023-08-01T09:42:40;1.40;;;1.30;;
5125;SDS011;63008;53.112;8.896;2023-08-01T09:44:44;1.70;;;1.23;;
5125;SDS011;63008;53.112;8.896;2023-08-01T09:46:55;1.70;;;1.60;;
5125;SDS011;63008;53.112;8.896;2023-08-01T09:49:06;1.23;;;1.10;;
5125;SDS011;63008;53.112;8.896;2023-08-01T09:51:17;1.40;;;1.20;;
5125;SDS011;63008;53.112;8.896;2023-08-01T09:53:19;1.63;;;1.53;;
5125;SDS011;63008;53.112;8.896;2023-08-01T09:55:26;2.07;;;1.40;;
5125;SDS011;63008;53.112;8.896;2023-08-01T09:57:32;3.87;;;1.50;;
5125;SDS011;63008;53.112;8.896;2023-08-01T09:59:38;2.90;;;1.60;;
5125;SDS011;63008;53.112;8.896;2023-08-01T10:01:39;1.70;;;1.57;;
5125;SDS011;63008;53.112;8.896;2023-08-01T10:03:44;1.33;;;1.23;;
5125;SDS011;63008;53.112;8.896;2023-08-01T10:05:48;2.50;;;1.10;;
5125;SDS011;63008;53.112;8.896;2023-08-01T10:07:51;4.40;;;1.23;;
5125;SDS011;63008;53.112;8.896;2023-08-01T10:09:54;1.33;;;1.07;;
5125;SDS011;63008;53.112;8.896;2023-08-01T10:11:57;1.33;;;1.00;;
5125;SDS011;63008;53.112;8.896;2023-08-01T10:13:58;1.40;;;1.10;;
5125;SDS011;63008;53.112;8.896;2023-08-01T10:16:00;3.13;;;1.30;;
5125;SDS011;63008;53.112;8.896;2023-08-01T10:18:03;4.60;;;1.20;;
5125;SDS011;63008;53.112;8.896;2023-08-01T10:20:04;4.17;;;1.30;;
5125;SDS011;63008;53.112;8.896;2023-08-01T10:22:06;1.57;;;1.30;;
5125;SDS011;63008;53.112;8.896;2023-08-01T10:24:08;2.20;;;1.37;;
5125;SDS011;63008;53.112;8.896;2023-08-01T10:26:10;4.90;;;2.17;;
5125;SDS011;63008;53.112;8.896;2023-08-01T10:28:11;2.10;;;1.30;;
5125;SDS011;63008;53.112;8.896;2023-08-01T10:30:12;2.03;;;1.00;;
5125;SDS011;63008;53.112;8.896;2023-08-01T10:32:13;1.93;;;1.13;;
5125;SDS011;63008;53.112;8.896;2023-08-01T10:34:14;2.20;;;1.27;;
5125;SDS011;63008;53.112;8.896;2023-08-01T10:38:21;2.60;;;1.03;;
5125;SDS011;63008;53.112;8.896;2023-08-01T10:40:32;1.43;;;1.13;;
5125;SDS011;63008;53.112;8.896;2023-08-01T10:42:37;1.10;;;1.00;;
5125;SDS011;63008;53.112;8.896;2023-08-01T10:44:45;3.33;;;1.13;;
5125;SDS011;63008;53.112;8.896;2023-08-01T10:46:50;1.43;;;0.80;;
5125;SDS011;63008;53.112;8.896;2023-08-01T10:48:52;2.77;;;1.40;;
5125;SDS011;63008;53.112;8.896;2023-08-01T10:50:54;2.10;;;1.40;;
5125;SDS011;63008;53.112;8.896;2023-08-01T10:53:02;1.13;;;1.03;;
5125;SDS011;63008;53.112;8.896;2023-08-01T10:55:05;2.30;;;1.00;;
5125;SDS011;63008;53.112;8.896;2023-08-01T10:57:06;2.23;;;0.97;;
5125;SDS011;63008;53.112;8.896;2023-08-01T10:59:08;1.90;;;1.03;;
5125;SDS011;63008;53.112;8.896;2023-08-01T11:01:09;1.83;;;1.23;;
5125;SDS011;63008;53.112;8.896;2023-08-01T11:03:10;2.17;;;1.33;;
5125;SDS011;63008;53.112;8.896;2023-08-01T11:05:11;3.53;;;1.43;;
5125;SDS011;63008;53.112;8.896;2023-08-01T11:07:12;3.83;;;1.00;;
5125;SDS011;63008;53.112;8.896;2023-08-01T11:09:23;1.13;;;1.00;;
5125;SDS011;63008;53.112;8.896;2023-08-01T11:11:26;3.30;;;1.23;;
5125;SDS011;63008;53.112;8.896;2023-08-01T11:13:27;4.53;;;1.60;;
5125;SDS011;63008;53.112;8.896;2023-08-01T11:15:28;1.20;;;1.10;;
5125;SDS011;63008;53.112;8.896;2023-08-01T11:17:29;5.13;;;1.20;;
5125;SDS011;63008;53.112;8.896;2023-08-01T11:19:30;2.33;;;0.90;;
5125;SDS011;63008;53.112;8.896;2023-08-01T11:21:31;1.43;;;1.17;;
5125;SDS011;63008;53.112;8.896;2023-08-01T11:23:35;0.70;;;0.60;;
5125;SDS011;63008;53.112;8.896;2023-08-01T11:25:42;1.30;;;0.90;;
5125;SDS011;63008;53.112;8.896;2023-08-01T11:27:46;2.50;;;0.80;;
5125;SDS011;63008;53.112;8.896;2023-08-01T11:29:46;2.00;;;0.90;;
5125;SDS011;63008;53.112;8.896;2023-08-01T11:31:51;3.70;;;1.00;;
5125;SDS011;63008;53.112;8.896;2023-08-01T11:33:59;2.80;;;1.00;;
5125;SDS011;63008;53.112;8.896;2023-08-01T11:36:00;2.30;;;1.03;;
5125;SDS011;63008;53.112;8.896;2023-08-01T11:38:02;1.07;;;0.87;;
5125;SDS011;63008;53.112;8.896;2023-08-01T11:40:04;2.07;;;1.00;;
5125;SDS011;63008;53.112;8.896;2023-08-01T11:42:07;1.17;;;0.90;;
5125;SDS011;63008;53.112;8.896;2023-08-01T11:44:08;1.50;;;0.90;;
5125;SDS011;63008;53.112;8.896;2023-08-01T11:46:11;1.07;;;1.00;;
5125;SDS011;63008;53.112;8.896;2023-08-01T11:48:13;0.87;;;0.77;;
5125;SDS011;63008;53.112;8.896;2023-08-01T11:50:14;1.07;;;0.83;;
5125;SDS011;63008;53.112;8.896;2023-08-01T11:52:25;1.00;;;0.70;;
5125;SDS011;63008;53.112;8.896;2023-08-01T11:54:27;1.60;;;0.90;;
5125;SDS011;63008;53.112;8.896;2023-08-01T11:56:29;1.30;;;0.90;;
5125;SDS011;63008;53.112;8.896;2023-08-01T11:58:34;3.73;;;1.13;;
5125;SDS011;63008;53.112;8.896;2023-08-01T12:00:37;0.97;;;0.73;;
5125;SDS011;63008;53.112;8.896;2023-08-01T12:02:38;4.67;;;0.93;;
5125;SDS011;63008;53.112;8.896;2023-08-01T12:04:39;1.67;;;0.90;;
5125;SDS011;63008;53.112;8.896;2023-08-01T12:06:40;1.33;;;0.93;;
5125;SDS011;63008;53.112;8.896;2023-08-01T12:08:42;2.00;;;1.20;;
5125;SDS011;63008;53.112;8.896;2023-08-01T12:10:44;2.10;;;0.87;;
5125;SDS011;63008;53.112;8.896;2023-08-01T12:12:46;1.63;;;0.90;;
5125;SDS011;63008;53.112;8.896;2023-08-01T12:14:48;1.20;;;0.90;;